sensor_id;sensor_type;location;lat;lon;timestamp;P1;durP1;ratioP1;P2;durP2;ratioP2
28960;SDS011;16068;42.896;20.868;2023-08-06T00:00:37;5.68;;;3.47;;
28960;SDS011;16068;42.896;20.868;2023-08-06T00:03:24;6.50;;;3.00;;
28960;SDS011;16068;42.896;20.868;2023-08-06T00:06:10;4.40;;;2.70;;
28960;SDS011;16068;42.896;20.868;2023-08-06T00:08:56;7.65;;;3.13;;
28960;SDS011;16068;42.896;20.868;2023-08-06T00:11:42;8.48;;;3.58;;
28960;SDS011;16068;42.896;20.868;2023-08-06T00:14:29;12.15;;;3.63;;
28960;SDS011;16068;42.896;20.868;2023-08-06T00:17:15;5.78;;;3.58;;
28960;SDS011;16068;42.896;20.868;2023-08-06T00:20:03;6.32;;;3.78;;
28960;SDS011;16068;42.896;20.868;2023-08-06T00:22:52;6.88;;;2.88;;
28960;SDS011;16068;42.896;20.868;2023-08-06T00:25:38;9.73;;;3.35;;
28960;SDS011;16068;42.896;20.868;2023-08-06T00:28:25;7.45;;;2.80;;
28960;SDS011;16068;42.896;20.868;2023-08-06T00:31:11;4.93;;;3.30;;
28960;SDS011;16068;42.896;20.868;2023-08-06T00:33:57;9.07;;;3.67;;
28960;SDS011;16068;42.896;20.868;2023-08-06T00:36:43;7.10;;;3.72;;
28960;SDS011;16068;42.896;20.868;2023-08-06T00:39:30;11.00;;;4.20;;
28960;SDS011;16068;42.896;20.868;2023-08-06T00:42:17;9.70;;;4.50;;
28960;SDS011;16068;42.896;20.868;2023-08-06T00:45:08;8.45;;;4.57;;
28960;SDS011;16068;42.896;20.868;2023-08-06T00:47:54;7.32;;;5.05;;
28960;SDS011;16068;42.896;20.868;2023-08-06T00:50:40;8.55;;;4.90;;
28960;SDS011;16068;42.896;20.868;2023-08-06T00:53:27;10.35;;;4.78;;
28960;SDS011;16068;42.896;20.868;2023-08-06T00:56:13;8.70;;;5.18;;
28960;SDS011;16068;42.896;20.868;2023-08-06T00:59:04;11.05;;;4.75;;
28960;SDS011;16068;42.896;20.868;2023-08-06T01:01:51;10.57;;;4.63;;
28960;SDS011;16068;42.896;20.868;2023-08-06T01:04:38;10.30;;;4.85;;
28960;SDS011;16068;42.896;20.868;2023-08-06T01:07:51;10.85;;;4.53;;
28960;SDS011;16068;42.896;20.868;2023-08-06T01:13:43;6.72;;;4.72;;
28960;SDS011;16068;42.896;20.868;2023-08-06T01:16:36;6.72;;;4.50;;
28960;SDS011;16068;42.896;20.868;2023-08-06T01:19:26;7.03;;;4.10;;
28960;SDS011;16068;42.896;20.868;2023-08-06T01:22:12;8.05;;;3.97;;
28960;SDS011;16068;42.896;20.868;2023-08-06T01:24:59;7.10;;;4.18;;
28960;SDS011;16068;42.896;20.868;2023-08-06T01:27:47;4.60;;;4.05;;
28960;SDS011;16068;42.896;20.868;2023-08-06T01:30:35;5.05;;;4.22;;
28960;SDS011;16068;42.896;20.868;2023-08-06T01:33:26;11.00;;;4.30;;
28960;SDS011;16068;42.896;20.868;2023-08-06T01:36:15;13.20;;;4.32;;
28960;SDS011;16068;42.896;20.868;2023-08-06T01:39:02;9.02;;;4.10;;
28960;SDS011;16068;42.896;20.868;2023-08-06T01:41:51;7.32;;;4.60;;
28960;SDS011;16068;42.896;20.868;2023-08-06T01:44:38;10.35;;;3.80;;
28960;SDS011;16068;42.896;20.868;2023-08-06T01:47:25;7.82;;;3.97;;
28960;SDS011;16068;42.896;20.868;2023-08-06T01:50:13;8.13;;;4.43;;
28960;SDS011;16068;42.896;20.868;2023-08-06T01:52:59;5.75;;;3.75;;
28960;SDS011;16068;42.896;20.868;2023-08-06T01:55:49;8.30;;;4.30;;
28960;SDS011;16068;42.896;20.868;2023-08-06T01:58:37;8.05;;;4.13;;
28960;SDS011;16068;42.896;20.868;2023-08-06T02:01:24;10.80;;;4.38;;
28960;SDS011;16068;42.896;20.868;2023-08-06T02:04:10;6.28;;;4.25;;
28960;SDS011;16068;42.896;20.868;2023-08-06T02:06:58;5.10;;;3.75;;
28960;SDS011;16068;42.896;20.868;2023-08-06T02:09:49;7.63;;;4.50;;
28960;SDS011;16068;42.896;20.868;2023-08-06T02:12:40;12.32;;;4.72;;
28960;SDS011;16068;42.896;20.868;2023-08-06T02:15:27;10.80;;;4.40;;
28960;SDS011;16068;42.896;20.868;2023-08-06T02:18:15;6.57;;;4.40;;
28960;SDS011;16068;42.896;20.868;2023-08-06T02:21:03;7.05;;;3.53;;
28960;SDS011;16068;42.896;20.868;2023-08-06T02:23:51;7.68;;;4.05;;
28960;SDS011;16068;42.896;20.868;2023-08-06T02:26:38;8.10;;;3.75;;
28960;SDS011;16068;42.896;20.868;2023-08-06T02:29:26;7.03;;;4.00;;
28960;SDS011;16068;42.896;20.868;2023-08-06T02:32:14;8.43;;;4.28;;
28960;SDS011;16068;42.896;20.868;2023-08-06T02:35:04;8.77;;;4.07;;
28960;SDS011;16068;42.896;20.868;2023-08-06T02:37:52;10.30;;;4.25;;
28960;SDS011;16068;42.896;20.868;2023-08-06T02:40:43;11.02;;;4.20;;
28960;SDS011;16068;42.896;20.868;2023-08-06T02:43:34;12.77;;;4.30;;
28960;SDS011;16068;42.896;20.868;2023-08-06T02:46:24;7.78;;;4.55;;
28960;SDS011;16068;42.896;20.868;2023-08-06T02:49:11;8.77;;;4.90;;
28960;SDS011;16068;42.896;20.868;2023-08-06T02:51:57;8.80;;;4.70;;
28960;SDS011;16068;42.896;20.868;2023-08-06T02:54:44;10.65;;;4.72;;
28960;SDS011;16068;42.896;20.868;2023-08-06T02:57:33;5.72;;;4.72;;
28960;SDS011;16068;42.896;20.868;2023-08-06T03:00:20;9.85;;;5.10;;
28960;SDS011;16068;42.896;20.868;2023-08-06T03:03:07;11.32;;;4.88;;
28960;SDS011;16068;42.896;20.868;2023-08-06T03:06:16;11.15;;;5.18;;
28960;SDS011;16068;42.896;20.868;2023-08-06T03:09:08;5.75;;;4.60;;
28960;SDS011;16068;42.896;20.868;2023-08-06T03:11:57;12.05;;;5.70;;
28960;SDS011;16068;42.896;20.868;2023-08-06T03:14:44;18.67;;;6.00;;
28960;SDS011;16068;42.896;20.868;2023-08-06T03:17:33;7.97;;;4.40;;
28960;SDS011;16068;42.896;20.868;2023-08-06T03:20:23;10.35;;;4.78;;
28960;SDS011;16068;42.896;20.868;2023-08-06T03:23:12;33.40;;;9.68;;
28960;SDS011;16068;42.896;20.868;2023-08-06T03:26:02;11.25;;;4.85;;
28960;SDS011;16068;42.896;20.868;2023-08-06T03:28:51;16.45;;;5.68;;
28960;SDS011;16068;42.896;20.868;2023-08-06T03:31:38;14.65;;;4.53;;
28960;SDS011;16068;42.896;20.868;2023-08-06T03:34:26;16.20;;;5.80;;
28960;SDS011;16068;42.896;20.868;2023-08-06T03:40:40;16.23;;;5.55;;
28960;SDS011;16068;42.896;20.868;2023-08-06T03:43:27;17.52;;;6.38;;
28960;SDS011;16068;42.896;20.868;2023-08-06T03:46:15;22.52;;;7.35;;
28960;SDS011;16068;42.896;20.868;2023-08-06T03:49:06;11.35;;;5.70;;
28960;SDS011;16068;42.896;20.868;2023-08-06T03:51:56;11.57;;;5.47;;
28960;SDS011;16068;42.896;20.868;2023-08-06T03:54:44;21.77;;;4.85;;
28960;SDS011;16068;42.896;20.868;2023-08-06T03:57:34;12.82;;;5.18;;
28960;SDS011;16068;42.896;20.868;2023-08-06T04:00:22;8.77;;;4.30;;
28960;SDS011;16068;42.896;20.868;2023-08-06T04:03:12;6.35;;;4.38;;
28960;SDS011;16068;42.896;20.868;2023-08-06T04:06:02;7.80;;;4.53;;
28960;SDS011;16068;42.896;20.868;2023-08-06T04:08:51;14.55;;;5.40;;
28960;SDS011;16068;42.896;20.868;2023-08-06T04:11:39;8.10;;;4.65;;
28960;SDS011;16068;42.896;20.868;2023-08-06T04:14:27;13.43;;;5.10;;
28960;SDS011;16068;42.896;20.868;2023-08-06T04:17:16;15.35;;;4.50;;
28960;SDS011;16068;42.896;20.868;2023-08-06T04:20:09;5.90;;;4.32;;
28960;SDS011;16068;42.896;20.868;2023-08-06T04:22:59;10.65;;;5.13;;
28960;SDS011;16068;42.896;20.868;2023-08-06T04:25:57;13.85;;;5.72;;
28960;SDS011;16068;42.896;20.868;2023-08-06T04:28:49;12.18;;;4.95;;
28960;SDS011;16068;42.896;20.868;2023-08-06T04:31:38;12.02;;;5.97;;
28960;SDS011;16068;42.896;20.868;2023-08-06T04:34:26;14.45;;;5.85;;
28960;SDS011;16068;42.896;20.868;2023-08-06T04:37:15;11.00;;;5.38;;
28960;SDS011;16068;42.896;20.868;2023-08-06T04:40:03;17.90;;;5.38;;
28960;SDS011;16068;42.896;20.868;2023-08-06T04:42:51;9.52;;;5.47;;
28960;SDS011;16068;42.896;20.868;2023-08-06T04:45:53;17.98;;;6.35;;
28960;SDS011;16068;42.896;20.868;2023-08-06T04:48:42;9.15;;;5.85;;
28960;SDS011;16068;42.896;20.868;2023-08-06T04:51:32;8.93;;;5.20;;
28960;SDS011;16068;42.896;20.868;2023-08-06T04:54:21;9.60;;;5.00;;
28960;SDS011;16068;42.896;20.868;2023-08-06T04:57:12;7.93;;;4.50;;
28960;SDS011;16068;42.896;20.868;2023-08-06T04:59:59;13.00;;;4.97;;
28960;SDS011;16068;42.896;20.868;2023-08-06T05:02:47;7.05;;;4.50;;
28960;SDS011;16068;42.896;20.868;2023-08-06T05:05:34;9.60;;;4.63;;
28960;SDS011;16068;42.896;20.868;2023-08-06T05:08:23;6.20;;;4.30;;
28960;SDS011;16068;42.896;20.868;2023-08-06T05:11:12;9.13;;;4.35;;
28960;SDS011;16068;42.896;20.868;2023-08-06T05:14:01;6.85;;;4.50;;
28960;SDS011;16068;42.896;20.868;2023-08-06T05:16:49;9.43;;;4.10;;
28960;SDS011;16068;42.896;20.868;2023-08-06T05:19:36;6.40;;;4.57;;
28960;SDS011;16068;42.896;20.868;2023-08-06T05:22:24;9.50;;;4.13;;
28960;SDS011;16068;42.896;20.868;2023-08-06T05:25:13;7.72;;;4.72;;
28960;SDS011;16068;42.896;20.868;2023-08-06T05:28:02;6.60;;;4.00;;
28960;SDS011;16068;42.896;20.868;2023-08-06T05:30:50;6.63;;;3.70;;
28960;SDS011;16068;42.896;20.868;2023-08-06T05:33:37;7.60;;;4.43;;
28960;SDS011;16068;42.896;20.868;2023-08-06T05:36:26;8.02;;;4.05;;
28960;SDS011;16068;42.896;20.868;2023-08-06T05:39:15;5.40;;;4.20;;
28960;SDS011;16068;42.896;20.868;2023-08-06T05:42:02;5.65;;;3.70;;
28960;SDS011;16068;42.896;20.868;2023-08-06T05:44:51;5.68;;;3.90;;
28960;SDS011;16068;42.896;20.868;2023-08-06T05:47:38;5.68;;;3.97;;
28960;SDS011;16068;42.896;20.868;2023-08-06T05:50:26;9.25;;;4.53;;
28960;SDS011;16068;42.896;20.868;2023-08-06T05:53:13;6.15;;;3.95;;
28960;SDS011;16068;42.896;20.868;2023-08-06T05:56:01;8.43;;;4.10;;
28960;SDS011;16068;42.896;20.868;2023-08-06T05:58:49;8.77;;;4.68;;
28960;SDS011;16068;42.896;20.868;2023-08-06T06:01:39;4.88;;;3.83;;
28960;SDS011;16068;42.896;20.868;2023-08-06T06:04:27;6.10;;;5.22;;
28960;SDS011;16068;42.896;20.868;2023-08-06T06:07:15;6.68;;;4.78;;
28960;SDS011;16068;42.896;20.868;2023-08-06T06:10:03;6.75;;;4.70;;
28960;SDS011;16068;42.896;20.868;2023-08-06T06:12:51;7.55;;;4.95;;
28960;SDS011;16068;42.896;20.868;2023-08-06T06:15:41;8.02;;;5.00;;
28960;SDS011;16068;42.896;20.868;2023-08-06T06:18:28;6.10;;;4.07;;
28960;SDS011;16068;42.896;20.868;2023-08-06T06:21:19;11.45;;;4.55;;
28960;SDS011;16068;42.896;20.868;2023-08-06T06:24:06;6.50;;;4.35;;
28960;SDS011;16068;42.896;20.868;2023-08-06T06:26:56;13.65;;;4.68;;
28960;SDS011;16068;42.896;20.868;2023-08-06T06:29:46;10.38;;;5.25;;
28960;SDS011;16068;42.896;20.868;2023-08-06T06:32:33;7.53;;;5.20;;
28960;SDS011;16068;42.896;20.868;2023-08-06T06:35:20;13.50;;;5.00;;
28960;SDS011;16068;42.896;20.868;2023-08-06T06:38:06;10.43;;;5.55;;
28960;SDS011;16068;42.896;20.868;2023-08-06T06:40:58;6.45;;;4.47;;
28960;SDS011;16068;42.896;20.868;2023-08-06T06:43:44;6.18;;;4.15;;
28960;SDS011;16068;42.896;20.868;2023-08-06T06:46:30;7.93;;;4.53;;
28960;SDS011;16068;42.896;20.868;2023-08-06T06:49:17;8.95;;;4.10;;
28960;SDS011;16068;42.896;20.868;2023-08-06T06:52:03;5.72;;;4.30;;
28960;SDS011;16068;42.896;20.868;2023-08-06T06:54:50;8.00;;;4.65;;
28960;SDS011;16068;42.896;20.868;2023-08-06T06:57:36;10.18;;;4.72;;
28960;SDS011;16068;42.896;20.868;2023-08-06T07:00:23;13.38;;;5.40;;
28960;SDS011;16068;42.896;20.868;2023-08-06T07:03:09;7.82;;;4.40;;
28960;SDS011;16068;42.896;20.868;2023-08-06T07:05:58;9.68;;;5.15;;
28960;SDS011;16068;42.896;20.868;2023-08-06T07:08:45;14.40;;;5.20;;
28960;SDS011;16068;42.896;20.868;2023-08-06T07:11:31;10.27;;;5.32;;
28960;SDS011;16068;42.896;20.868;2023-08-06T07:14:18;9.02;;;5.45;;
28960;SDS011;16068;42.896;20.868;2023-08-06T07:17:04;6.88;;;4.93;;
28960;SDS011;16068;42.896;20.868;2023-08-06T07:19:50;11.23;;;5.72;;
28960;SDS011;16068;42.896;20.868;2023-08-06T07:22:37;8.35;;;5.05;;
28960;SDS011;16068;42.896;20.868;2023-08-06T07:25:24;7.82;;;4.78;;
28960;SDS011;16068;42.896;20.868;2023-08-06T07:28:10;9.18;;;4.88;;
28960;SDS011;16068;42.896;20.868;2023-08-06T07:30:56;8.00;;;4.93;;
28960;SDS011;16068;42.896;20.868;2023-08-06T07:33:42;11.63;;;5.40;;
28960;SDS011;16068;42.896;20.868;2023-08-06T07:36:27;13.98;;;5.00;;
28960;SDS011;16068;42.896;20.868;2023-08-06T07:39:14;15.05;;;5.15;;
28960;SDS011;16068;42.896;20.868;2023-08-06T07:42:03;10.20;;;5.00;;
28960;SDS011;16068;42.896;20.868;2023-08-06T07:45:00;13.90;;;5.15;;
28960;SDS011;16068;42.896;20.868;2023-08-06T07:47:47;10.18;;;4.47;;
28960;SDS011;16068;42.896;20.868;2023-08-06T07:50:36;13.10;;;4.97;;
28960;SDS011;16068;42.896;20.868;2023-08-06T07:53:23;9.30;;;5.20;;
28960;SDS011;16068;42.896;20.868;2023-08-06T07:56:12;15.10;;;6.45;;
28960;SDS011;16068;42.896;20.868;2023-08-06T07:58:58;8.75;;;6.90;;
28960;SDS011;16068;42.896;20.868;2023-08-06T08:01:44;10.35;;;5.10;;
28960;SDS011;16068;42.896;20.868;2023-08-06T08:04:30;8.45;;;5.15;;
28960;SDS011;16068;42.896;20.868;2023-08-06T08:07:18;7.65;;;4.97;;
28960;SDS011;16068;42.896;20.868;2023-08-06T08:10:04;11.65;;;4.85;;
28960;SDS011;16068;42.896;20.868;2023-08-06T08:12:51;10.00;;;6.90;;
28960;SDS011;16068;42.896;20.868;2023-08-06T08:15:37;8.98;;;5.40;;
28960;SDS011;16068;42.896;20.868;2023-08-06T08:18:23;8.27;;;5.22;;
28960;SDS011;16068;42.896;20.868;2023-08-06T08:21:09;8.55;;;5.32;;
28960;SDS011;16068;42.896;20.868;2023-08-06T08:23:55;7.30;;;4.85;;
28960;SDS011;16068;42.896;20.868;2023-08-06T08:26:41;6.88;;;4.25;;
28960;SDS011;16068;42.896;20.868;2023-08-06T08:29:27;6.45;;;5.03;;
28960;SDS011;16068;42.896;20.868;2023-08-06T08:32:13;5.35;;;4.38;;
28960;SDS011;16068;42.896;20.868;2023-08-06T08:34:59;8.48;;;4.13;;
28960;SDS011;16068;42.896;20.868;2023-08-06T08:37:45;6.03;;;3.92;;
28960;SDS011;16068;42.896;20.868;2023-08-06T08:40:32;7.15;;;4.40;;
28960;SDS011;16068;42.896;20.868;2023-08-06T08:43:20;7.72;;;4.05;;
28960;SDS011;16068;42.896;20.868;2023-08-06T08:46:07;8.38;;;3.90;;
28960;SDS011;16068;42.896;20.868;2023-08-06T08:48:55;6.90;;;3.60;;
28960;SDS011;16068;42.896;20.868;2023-08-06T08:51:41;7.10;;;4.10;;
28960;SDS011;16068;42.896;20.868;2023-08-06T08:54:29;8.75;;;5.55;;
28960;SDS011;16068;42.896;20.868;2023-08-06T08:57:17;7.40;;;3.60;;
28960;SDS011;16068;42.896;20.868;2023-08-06T09:00:03;5.53;;;2.95;;
28960;SDS011;16068;42.896;20.868;2023-08-06T09:02:51;8.15;;;4.32;;
28960;SDS011;16068;42.896;20.868;2023-08-06T09:05:39;10.23;;;4.13;;
28960;SDS011;16068;42.896;20.868;2023-08-06T09:08:40;6.45;;;3.67;;
28960;SDS011;16068;42.896;20.868;2023-08-06T09:11:30;8.23;;;4.55;;
28960;SDS011;16068;42.896;20.868;2023-08-06T09:14:24;8.40;;;3.58;;
28960;SDS011;16068;42.896;20.868;2023-08-06T09:17:10;5.18;;;3.22;;
28960;SDS011;16068;42.896;20.868;2023-08-06T09:19:56;7.30;;;3.30;;
28960;SDS011;16068;42.896;20.868;2023-08-06T09:22:43;5.93;;;3.13;;
28960;SDS011;16068;42.896;20.868;2023-08-06T09:25:30;6.13;;;3.85;;
28960;SDS011;16068;42.896;20.868;2023-08-06T09:28:17;4.07;;;2.97;;
28960;SDS011;16068;42.896;20.868;2023-08-06T09:31:03;8.35;;;3.85;;
28960;SDS011;16068;42.896;20.868;2023-08-06T09:33:50;7.60;;;2.83;;
28960;SDS011;16068;42.896;20.868;2023-08-06T09:36:39;5.20;;;2.90;;
28960;SDS011;16068;42.896;20.868;2023-08-06T09:39:27;3.95;;;2.55;;
28960;SDS011;16068;42.896;20.868;2023-08-06T09:42:14;4.15;;;2.50;;
28960;SDS011;16068;42.896;20.868;2023-08-06T09:45:05;7.55;;;4.57;;
28960;SDS011;16068;42.896;20.868;2023-08-06T09:47:55;12.45;;;5.45;;
28960;SDS011;16068;42.896;20.868;2023-08-06T09:50:42;13.77;;;7.95;;
28960;SDS011;16068;42.896;20.868;2023-08-06T09:53:28;12.38;;;7.60;;
28960;SDS011;16068;42.896;20.868;2023-08-06T09:56:14;13.52;;;6.35;;
28960;SDS011;16068;42.896;20.868;2023-08-06T09:59:01;8.88;;;5.05;;
28960;SDS011;16068;42.896;20.868;2023-08-06T10:01:47;7.07;;;4.32;;
28960;SDS011;16068;42.896;20.868;2023-08-06T10:04:34;13.23;;;7.43;;
28960;SDS011;16068;42.896;20.868;2023-08-06T10:07:25;9.23;;;3.95;;
28960;SDS011;16068;42.896;20.868;2023-08-06T10:10:14;4.38;;;2.75;;
28960;SDS011;16068;42.896;20.868;2023-08-06T10:13:00;7.03;;;2.72;;
28960;SDS011;16068;42.896;20.868;2023-08-06T10:15:46;4.05;;;2.28;;
28960;SDS011;16068;42.896;20.868;2023-08-06T10:18:32;6.95;;;2.80;;
28960;SDS011;16068;42.896;20.868;2023-08-06T10:21:19;9.65;;;3.53;;
28960;SDS011;16068;42.896;20.868;2023-08-06T10:24:07;3.60;;;2.70;;
28960;SDS011;16068;42.896;20.868;2023-08-06T10:26:58;6.93;;;4.05;;
28960;SDS011;16068;42.896;20.868;2023-08-06T10:29:44;2.95;;;2.05;;
28960;SDS011;16068;42.896;20.868;2023-08-06T10:35:50;5.25;;;2.65;;
28960;SDS011;16068;42.896;20.868;2023-08-06T10:38:49;5.38;;;2.83;;
28960;SDS011;16068;42.896;20.868;2023-08-06T10:41:35;7.30;;;3.05;;
28960;SDS011;16068;42.896;20.868;2023-08-06T10:44:22;4.32;;;3.70;;
28960;SDS011;16068;42.896;20.868;2023-08-06T10:47:25;4.95;;;3.03;;
28960;SDS011;16068;42.896;20.868;2023-08-06T10:50:16;5.32;;;3.20;;
28960;SDS011;16068;42.896;20.868;2023-08-06T10:53:04;6.90;;;3.40;;
28960;SDS011;16068;42.896;20.868;2023-08-06T10:55:51;5.10;;;2.65;;
28960;SDS011;16068;42.896;20.868;2023-08-06T10:58:37;3.45;;;1.90;;
28960;SDS011;16068;42.896;20.868;2023-08-06T11:01:24;3.85;;;2.00;;
28960;SDS011;16068;42.896;20.868;2023-08-06T11:04:10;3.70;;;2.22;;
28960;SDS011;16068;42.896;20.868;2023-08-06T11:07:01;4.70;;;2.17;;
28960;SDS011;16068;42.896;20.868;2023-08-06T11:09:49;3.25;;;2.08;;
28960;SDS011;16068;42.896;20.868;2023-08-06T11:12:36;2.65;;;1.95;;
28960;SDS011;16068;42.896;20.868;2023-08-06T11:15:23;2.85;;;2.00;;
28960;SDS011;16068;42.896;20.868;2023-08-06T11:18:09;4.03;;;2.40;;
28960;SDS011;16068;42.896;20.868;2023-08-06T11:20:55;9.50;;;2.03;;
28960;SDS011;16068;42.896;20.868;2023-08-06T11:23:41;2.10;;;1.70;;
28960;SDS011;16068;42.896;20.868;2023-08-06T11:26:27;2.75;;;1.60;;
28960;SDS011;16068;42.896;20.868;2023-08-06T11:29:15;3.60;;;1.95;;
28960;SDS011;16068;42.896;20.868;2023-08-06T11:32:04;8.07;;;1.80;;
28960;SDS011;16068;42.896;20.868;2023-08-06T11:34:52;5.45;;;2.63;;
28960;SDS011;16068;42.896;20.868;2023-08-06T11:37:49;4.57;;;2.35;;
28960;SDS011;16068;42.896;20.868;2023-08-06T11:40:45;6.55;;;1.77;;
28960;SDS011;16068;42.896;20.868;2023-08-06T11:43:31;4.18;;;1.70;;
28960;SDS011;16068;42.896;20.868;2023-08-06T11:46:19;4.35;;;1.50;;
28960;SDS011;16068;42.896;20.868;2023-08-06T11:49:05;8.00;;;1.90;;
28960;SDS011;16068;42.896;20.868;2023-08-06T11:51:51;5.13;;;1.65;;
28960;SDS011;16068;42.896;20.868;2023-08-06T11:54:37;4.80;;;1.52;;
28960;SDS011;16068;42.896;20.868;2023-08-06T11:57:24;3.92;;;1.50;;
28960;SDS011;16068;42.896;20.868;2023-08-06T12:00:11;4.63;;;1.60;;
28960;SDS011;16068;42.896;20.868;2023-08-06T12:03:00;5.00;;;1.80;;
28960;SDS011;16068;42.896;20.868;2023-08-06T12:05:46;4.07;;;1.75;;
28960;SDS011;16068;42.896;20.868;2023-08-06T12:08:33;2.78;;;2.08;;
28960;SDS011;16068;42.896;20.868;2023-08-06T12:11:23;3.72;;;2.10;;
28960;SDS011;16068;42.896;20.868;2023-08-06T12:14:09;5.63;;;1.70;;
28960;SDS011;16068;42.896;20.868;2023-08-06T12:16:55;3.17;;;1.38;;
28960;SDS011;16068;42.896;20.868;2023-08-06T12:19:41;3.58;;;1.30;;
28960;SDS011;16068;42.896;20.868;2023-08-06T12:22:28;4.63;;;2.83;;
28960;SDS011;16068;42.896;20.868;2023-08-06T12:25:17;4.30;;;1.60;;
28960;SDS011;16068;42.896;20.868;2023-08-06T12:28:03;2.28;;;1.20;;
28960;SDS011;16068;42.896;20.868;2023-08-06T12:30:51;3.58;;;0.95;;
28960;SDS011;16068;42.896;20.868;2023-08-06T12:33:40;3.25;;;1.55;;
28960;SDS011;16068;42.896;20.868;2023-08-06T12:36:30;5.60;;;1.95;;
28960;SDS011;16068;42.896;20.868;2023-08-06T12:39:16;8.07;;;1.38;;
28960;SDS011;16068;42.896;20.868;2023-08-06T12:42:10;6.55;;;2.05;;
28960;SDS011;16068;42.896;20.868;2023-08-06T12:44:56;1.27;;;0.90;;
28960;SDS011;16068;42.896;20.868;2023-08-06T12:47:42;2.10;;;1.00;;
28960;SDS011;16068;42.896;20.868;2023-08-06T12:50:28;1.42;;;0.82;;
28960;SDS011;16068;42.896;20.868;2023-08-06T12:53:15;2.15;;;0.90;;
28960;SDS011;16068;42.896;20.868;2023-08-06T12:56:01;1.92;;;0.77;;
28960;SDS011;16068;42.896;20.868;2023-08-06T12:58:48;3.38;;;1.00;;
28960;SDS011;16068;42.896;20.868;2023-08-06T13:01:33;6.13;;;0.80;;
28960;SDS011;16068;42.896;20.868;2023-08-06T13:04:20;4.38;;;2.50;;
28960;SDS011;16068;42.896;20.868;2023-08-06T13:07:07;2.20;;;1.00;;
28960;SDS011;16068;42.896;20.868;2023-08-06T13:09:54;1.17;;;0.80;;
28960;SDS011;16068;42.896;20.868;2023-08-06T13:12:40;4.05;;;1.15;;
28960;SDS011;16068;42.896;20.868;2023-08-06T13:15:26;1.88;;;0.80;;
28960;SDS011;16068;42.896;20.868;2023-08-06T13:18:12;3.08;;;1.00;;
28960;SDS011;16068;42.896;20.868;2023-08-06T13:20:59;5.10;;;0.80;;
28960;SDS011;16068;42.896;20.868;2023-08-06T13:23:45;4.35;;;1.55;;
28960;SDS011;16068;42.896;20.868;2023-08-06T13:26:31;4.32;;;2.45;;
28960;SDS011;16068;42.896;20.868;2023-08-06T13:29:17;1.80;;;1.40;;
28960;SDS011;16068;42.896;20.868;2023-08-06T13:32:03;2.85;;;1.05;;
28960;SDS011;16068;42.896;20.868;2023-08-06T13:34:49;1.80;;;0.80;;
28960;SDS011;16068;42.896;20.868;2023-08-06T13:37:35;1.67;;;0.90;;
28960;SDS011;16068;42.896;20.868;2023-08-06T13:40:21;2.83;;;0.75;;
28960;SDS011;16068;42.896;20.868;2023-08-06T13:43:07;2.55;;;0.90;;
28960;SDS011;16068;42.896;20.868;2023-08-06T13:45:53;2.55;;;0.95;;
28960;SDS011;16068;42.896;20.868;2023-08-06T13:48:40;3.45;;;1.50;;
28960;SDS011;16068;42.896;20.868;2023-08-06T13:51:26;2.28;;;1.00;;
28960;SDS011;16068;42.896;20.868;2023-08-06T13:54:13;2.53;;;1.20;;
28960;SDS011;16068;42.896;20.868;2023-08-06T13:56:59;1.33;;;0.75;;
28960;SDS011;16068;42.896;20.868;2023-08-06T13:59:45;2.13;;;0.65;;
28960;SDS011;16068;42.896;20.868;2023-08-06T14:02:31;3.30;;;0.82;;
28960;SDS011;16068;42.896;20.868;2023-08-06T14:05:17;1.83;;;0.70;;
28960;SDS011;16068;42.896;20.868;2023-08-06T14:08:03;1.58;;;0.70;;
28960;SDS011;16068;42.896;20.868;2023-08-06T14:10:50;4.88;;;1.10;;
28960;SDS011;16068;42.896;20.868;2023-08-06T14:13:36;4.68;;;0.80;;
28960;SDS011;16068;42.896;20.868;2023-08-06T14:16:23;3.75;;;0.82;;
28960;SDS011;16068;42.896;20.868;2023-08-06T14:19:08;2.42;;;0.95;;
28960;SDS011;16068;42.896;20.868;2023-08-06T14:21:54;2.83;;;0.95;;
28960;SDS011;16068;42.896;20.868;2023-08-06T14:24:40;1.35;;;0.90;;
28960;SDS011;16068;42.896;20.868;2023-08-06T14:27:27;8.45;;;1.40;;
28960;SDS011;16068;42.896;20.868;2023-08-06T14:30:13;3.97;;;1.20;;
28960;SDS011;16068;42.896;20.868;2023-08-06T14:32:59;6.40;;;1.20;;
28960;SDS011;16068;42.896;20.868;2023-08-06T14:36:08;2.38;;;0.90;;
28960;SDS011;16068;42.896;20.868;2023-08-06T14:38:54;4.72;;;0.98;;
28960;SDS011;16068;42.896;20.868;2023-08-06T14:41:45;8.18;;;1.10;;
28960;SDS011;16068;42.896;20.868;2023-08-06T14:44:31;2.30;;;1.30;;
28960;SDS011;16068;42.896;20.868;2023-08-06T14:47:17;2.30;;;0.80;;
28960;SDS011;16068;42.896;20.868;2023-08-06T14:50:03;2.65;;;1.10;;
28960;SDS011;16068;42.896;20.868;2023-08-06T14:52:50;4.65;;;1.10;;
28960;SDS011;16068;42.896;20.868;2023-08-06T14:55:36;1.23;;;0.73;;
28960;SDS011;16068;42.896;20.868;2023-08-06T14:58:23;4.95;;;1.23;;
28960;SDS011;16068;42.896;20.868;2023-08-06T15:01:09;2.10;;;0.90;;
28960;SDS011;16068;42.896;20.868;2023-08-06T15:03:55;3.65;;;1.02;;
28960;SDS011;16068;42.896;20.868;2023-08-06T15:06:42;3.72;;;1.10;;
28960;SDS011;16068;42.896;20.868;2023-08-06T15:09:28;2.90;;;0.98;;
28960;SDS011;16068;42.896;20.868;2023-08-06T15:12:14;6.57;;;0.93;;
28960;SDS011;16068;42.896;20.868;2023-08-06T15:15:01;3.47;;;1.20;;
28960;SDS011;16068;42.896;20.868;2023-08-06T15:17:47;3.58;;;1.60;;
28960;SDS011;16068;42.896;20.868;2023-08-06T15:20:33;8.65;;;2.75;;
28960;SDS011;16068;42.896;20.868;2023-08-06T15:23:19;8.25;;;2.55;;
28960;SDS011;16068;42.896;20.868;2023-08-06T15:26:05;6.10;;;2.75;;
28960;SDS011;16068;42.896;20.868;2023-08-06T15:28:51;8.65;;;3.20;;
28960;SDS011;16068;42.896;20.868;2023-08-06T15:31:38;8.40;;;2.50;;
28960;SDS011;16068;42.896;20.868;2023-08-06T15:34:25;7.78;;;2.90;;
28960;SDS011;16068;42.896;20.868;2023-08-06T15:37:11;7.65;;;2.40;;
28960;SDS011;16068;42.896;20.868;2023-08-06T15:39:58;11.70;;;3.13;;
28960;SDS011;16068;42.896;20.868;2023-08-06T15:42:44;7.75;;;2.83;;
28960;SDS011;16068;42.896;20.868;2023-08-06T15:45:30;5.80;;;2.58;;
28960;SDS011;16068;42.896;20.868;2023-08-06T15:48:17;6.32;;;1.90;;
28960;SDS011;16068;42.896;20.868;2023-08-06T15:51:03;4.50;;;1.25;;
28960;SDS011;16068;42.896;20.868;2023-08-06T15:53:49;5.70;;;1.60;;
28960;SDS011;16068;42.896;20.868;2023-08-06T15:56:35;2.25;;;1.15;;
28960;SDS011;16068;42.896;20.868;2023-08-06T15:59:28;5.10;;;1.50;;
28960;SDS011;16068;42.896;20.868;2023-08-06T16:02:15;2.78;;;1.42;;
28960;SDS011;16068;42.896;20.868;2023-08-06T16:05:01;5.85;;;1.60;;
28960;SDS011;16068;42.896;20.868;2023-08-06T16:07:49;9.25;;;1.38;;
28960;SDS011;16068;42.896;20.868;2023-08-06T16:10:36;5.78;;;1.50;;
28960;SDS011;16068;42.896;20.868;2023-08-06T16:13:22;3.22;;;1.30;;
28960;SDS011;16068;42.896;20.868;2023-08-06T16:16:08;2.03;;;1.05;;
28960;SDS011;16068;42.896;20.868;2023-08-06T16:18:54;5.35;;;1.50;;
28960;SDS011;16068;42.896;20.868;2023-08-06T16:21:40;4.47;;;1.48;;
28960;SDS011;16068;42.896;20.868;2023-08-06T16:24:26;3.90;;;1.48;;
28960;SDS011;16068;42.896;20.868;2023-08-06T16:27:13;4.40;;;1.38;;
28960;SDS011;16068;42.896;20.868;2023-08-06T16:29:59;6.95;;;1.30;;
28960;SDS011;16068;42.896;20.868;2023-08-06T16:32:49;7.63;;;2.22;;
28960;SDS011;16068;42.896;20.868;2023-08-06T16:35:38;4.78;;;1.50;;
28960;SDS011;16068;42.896;20.868;2023-08-06T16:38:24;3.33;;;1.42;;
28960;SDS011;16068;42.896;20.868;2023-08-06T16:41:10;6.30;;;1.73;;